createdAt,value
2022-10-10T00:05:17.232Z,84.55
2022-10-10T00:10:39.000Z,85.14
2022-10-10T00:16:01.165Z,85.07
2022-10-10T00:21:22.957Z,85.04
2022-10-10T00:26:44.657Z,85.06
2022-10-10T00:32:06.348Z,85.18
2022-10-10T00:37:28.046Z,85.12
2022-10-10T00:42:49.944Z,86.18
2022-10-10T00:48:23.008Z,85.25
2022-10-10T00:53:47.862Z,84.30
2022-10-10T00:59:12.405Z,84.59
2022-10-10T01:04:45.185Z,84.81
2022-10-10T01:10:14.105Z,85.39
2022-10-10T01:15:56.979Z,84.93
2022-10-10T01:22:04.149Z,85.35
2022-10-10T01:27:47.636Z,85.27
2022-10-10T01:33:16.049Z,85.68
2022-10-10T01:38:57.765Z,86.12
2022-10-10T01:44:21.772Z,86.16
2022-10-10T01:49:45.099Z,86.38
2022-10-10T01:55:36.803Z,86.16
2022-10-10T02:01:19.626Z,86.12
2022-10-10T02:06:47.265Z,85.57
2022-10-10T02:12:12.547Z,86.58
2022-10-10T02:17:37.699Z,86.73
2022-10-10T02:22:59.586Z,87.33
2022-10-10T02:28:40.223Z,87.38
2022-10-10T02:34:17.738Z,87.63
2022-10-10T02:39:44.790Z,87.35
2022-10-10T02:45:07.158Z,87.66
2022-10-10T02:50:30.191Z,87.80
2022-10-10T02:55:51.918Z,88.01
2022-10-10T03:01:13.658Z,88.70
2022-10-10T03:06:35.863Z,88.45
2022-10-10T03:11:57.632Z,88.95
2022-10-10T03:17:19.331Z,89.28
2022-10-10T03:22:41.022Z,89.42
2022-10-10T03:28:02.787Z,89.26
2022-10-10T03:33:24.570Z,90.21
2022-10-10T03:38:46.250Z,90.09
2022-10-10T03:44:07.935Z,90.07
2022-10-10T03:49:29.647Z,88.99
2022-10-10T03:54:51.339Z,89.01
2022-10-10T04:00:13.910Z,89.59
2022-10-10T04:05:37.650Z,89.29
2022-10-10T04:10:59.353Z,90.10
2022-10-10T04:16:21.089Z,90.39
2022-10-10T04:21:42.791Z,91.57
2022-10-10T04:27:04.614Z,92.21
2022-10-10T04:32:26.388Z,92.02
2022-10-10T04:37:48.104Z,90.34
2022-10-10T04:43:09.885Z,90.24
2022-10-10T04:48:31.578Z,91.21
2022-10-10T04:53:53.255Z,90.76
2022-10-10T04:59:14.941Z,90.64
2022-10-10T05:04:36.739Z,90.71
2022-10-10T05:09:58.445Z,91.16
2022-10-10T05:15:21.421Z,90.88
2022-10-10T05:20:43.979Z,91.07
2022-10-10T05:26:05.731Z,92.73
2022-10-10T05:31:28.792Z,92.04
2022-10-10T05:36:50.659Z,92.12
2022-10-10T05:42:13.975Z,91.63
2022-10-10T05:47:35.765Z,91.91
2022-10-10T05:52:57.513Z,93.52
2022-10-10T05:58:19.697Z,94.43
2022-10-10T06:03:41.480Z,93.82
2022-10-10T06:09:03.646Z,92.46
2022-10-10T06:14:25.497Z,91.38
2022-10-10T06:19:47.238Z,92.26
2022-10-10T06:25:23.891Z,93.34
2022-10-10T06:30:51.481Z,92.13
2022-10-10T06:36:14.210Z,91.43
2022-10-10T06:41:36.073Z,91.14
2022-10-10T06:46:58.080Z,90.55
2022-10-10T06:52:19.907Z,91.12
2022-10-10T06:57:42.726Z,89.83
2022-10-10T07:03:04.445Z,90.61
2022-10-10T07:08:26.805Z,90.54
2022-10-10T07:13:50.960Z,90.23
2022-10-10T07:19:12.756Z,91.04
2022-10-10T07:24:34.506Z,91.38
2022-10-10T07:29:56.280Z,92.10
2022-10-10T07:35:18.134Z,91.92
2022-10-10T07:40:41.275Z,90.34
2022-10-10T07:46:05.869Z,90.50
2022-10-10T07:51:30.215Z,89.46
2022-10-10T07:56:52.047Z,88.54
2022-10-10T08:02:13.944Z,87.86
2022-10-10T08:07:35.843Z,87.77
2022-10-10T08:12:57.564Z,87.82
2022-10-10T08:18:19.692Z,87.72
2022-10-10T08:23:41.965Z,87.55
2022-10-10T08:29:03.829Z,86.87
2022-10-10T08:34:25.629Z,86.01
2022-10-10T08:39:47.451Z,84.75
2022-10-10T08:45:15.053Z,84.48
2022-10-10T08:50:46.445Z,84.18
2022-10-10T08:56:16.410Z,84.29
2022-10-10T09:02:17.843Z,84.54
2022-10-10T09:07:34.703Z,84.19
2022-10-10T09:13:12.789Z,83.86
2022-10-10T09:18:53.699Z,84.40
2022-10-10T09:24:32.287Z,84.29
2022-10-10T09:30:05.886Z,83.71
2022-10-10T09:35:47.659Z,83.64
2022-10-10T09:41:16.049Z,83.45
2022-10-10T09:46:38.442Z,83.78
2022-10-10T09:52:12.091Z,84.21
2022-10-10T09:57:40.815Z,84.59
2022-10-10T10:03:08.509Z,83.35
2022-10-10T10:08:35.669Z,83.43
2022-10-10T10:13:57.884Z,83.62
2022-10-10T10:19:37.353Z,83.72
2022-10-10T10:25:19.968Z,83.50
2022-10-10T10:30:43.459Z,83.18
2022-10-10T10:36:29.827Z,82.47
2022-10-10T10:42:06.182Z,81.46
2022-10-10T10:47:51.087Z,81.63
2022-10-10T10:53:22.180Z,82.21
2022-10-10T10:59:30.367Z,81.16
2022-10-10T11:05:25.052Z,77.29
2022-10-10T11:11:01.805Z,78.76
2022-10-10T11:16:47.557Z,75.48
2022-10-10T11:22:18.512Z,76.55
2022-10-10T11:27:48.522Z,76.29
2022-10-10T11:33:10.157Z,76.70
2022-10-10T11:38:38.541Z,75.61
2022-10-10T11:44:15.267Z,72.72
2022-10-10T11:49:53.301Z,70.95
2022-10-10T11:55:36.391Z,73.07
2022-10-10T12:01:06.026Z,71.49
2022-10-10T12:06:38.658Z,71.04
2022-10-10T12:12:12.698Z,70.33
2022-10-10T12:17:39.811Z,70.49
2022-10-10T12:23:24.660Z,70.60
2022-10-10T12:29:05.663Z,69.92
2022-10-10T12:34:54.765Z,69.51
2022-10-10T12:40:21.519Z,67.35
2022-10-10T12:46:18.721Z,66.45
2022-10-10T12:51:42.138Z,67.28
2022-10-10T12:57:18.771Z,68.88
2022-10-10T13:02:44.111Z,69.17
2022-10-10T13:08:11.959Z,69.90
2022-10-10T13:13:34.258Z,70.12
2022-10-10T13:18:58.251Z,70.26
2022-10-10T13:24:31.571Z,70.12
2022-10-10T13:29:55.064Z,70.50
2022-10-10T13:35:21.265Z,71.18
2022-10-10T13:40:44.379Z,70.66
2022-10-10T13:46:06.579Z,70.12
2022-10-10T13:51:43.635Z,69.33
2022-10-10T13:57:10.857Z,69.80
2022-10-10T14:02:36.193Z,68.99
2022-10-10T14:07:59.056Z,67.18
2022-10-10T14:13:20.891Z,65.97
2022-10-10T14:18:42.615Z,66.95
2022-10-10T14:24:04.607Z,66.56
2022-10-10T14:29:26.317Z,66.42
2022-10-10T14:34:48.210Z,66.06
2022-10-10T14:40:22.940Z,66.13
2022-10-10T14:45:45.094Z,65.99
2022-10-10T14:51:33.789Z,66.20
2022-10-10T14:57:07.437Z,66.56
2022-10-10T15:02:31.830Z,69.04
2022-10-10T15:07:53.871Z,69.56
2022-10-10T15:13:16.067Z,67.92
2022-10-10T15:18:53.623Z,65.83
2022-10-10T15:24:16.279Z,66.20
2022-10-10T15:29:39.470Z,65.04
2022-10-10T15:35:01.239Z,64.13
2022-10-10T15:40:23.879Z,65.55
2022-10-10T15:45:55.814Z,67.06
2022-10-10T15:51:18.442Z,68.26
2022-10-10T15:56:42.222Z,66.14
2022-10-10T16:02:03.959Z,68.63
2022-10-10T16:07:29.518Z,70.78
2022-10-10T16:12:54.716Z,71.15
2022-10-10T16:18:16.410Z,71.63
2022-10-10T16:23:38.517Z,71.88
2022-10-10T16:29:01.595Z,71.81
2022-10-10T16:34:23.293Z,70.92
2022-10-10T16:39:45.003Z,71.21
2022-10-10T16:45:07.394Z,71.25
2022-10-10T16:50:29.086Z,71.22
2022-10-10T16:55:50.849Z,71.57
2022-10-10T17:01:15.664Z,71.80
2022-10-10T17:06:37.831Z,72.11
2022-10-10T17:11:59.602Z,72.89
2022-10-10T17:17:22.485Z,73.75
2022-10-10T17:22:44.264Z,74.73
2022-10-10T17:28:06.020Z,75.38
2022-10-10T17:33:27.836Z,75.93
2022-10-10T17:38:49.600Z,75.73
2022-10-10T17:44:12.131Z,75.91
2022-10-10T17:49:33.903Z,76.42
2022-10-10T17:54:55.585Z,75.97
2022-10-10T18:00:17.419Z,76.21
2022-10-10T18:05:40.032Z,76.05
2022-10-10T18:11:03.164Z,76.17
2022-10-10T18:16:25.849Z,75.94
2022-10-10T18:21:48.900Z,77.35
2022-10-10T18:27:10.691Z,77.73
2022-10-10T18:32:32.614Z,86.52
2022-10-10T18:37:54.395Z,95.05
2022-10-10T18:43:18.210Z,100.00
2022-10-10T18:48:40.548Z,100.00
2022-10-10T18:54:07.768Z,98.13
2022-10-10T18:59:29.689Z,100.00
2022-10-10T19:04:51.436Z,100.00
2022-10-10T19:10:13.181Z,100.00
2022-10-10T19:15:35.270Z,100.00
2022-10-10T19:21:05.597Z,100.00
2022-10-10T19:26:33.184Z,100.00
2022-10-10T19:31:55.886Z,100.00
2022-10-10T19:37:19.396Z,100.00
2022-10-10T19:42:41.120Z,100.00
2022-10-10T19:48:02.861Z,100.00
2022-10-10T19:53:25.282Z,100.00
2022-10-10T19:58:47.690Z,100.00
2022-10-10T20:04:09.505Z,100.00
2022-10-10T20:09:31.274Z,100.00
2022-10-10T20:14:53.114Z,100.00
2022-10-10T20:20:14.994Z,100.00
2022-10-10T20:25:41.713Z,100.00
2022-10-10T20:31:03.558Z,100.00
2022-10-10T20:36:25.379Z,100.00
2022-10-10T20:41:47.223Z,100.00
2022-10-10T20:47:08.903Z,100.00
2022-10-10T20:52:30.900Z,100.00
2022-10-10T20:57:52.917Z,100.00
2022-10-10T21:03:14.606Z,100.00
2022-10-10T21:08:36.538Z,100.00
2022-10-10T21:13:59.596Z,100.00
2022-10-10T21:19:21.411Z,100.00
2022-10-10T21:24:43.112Z,100.00
2022-10-10T21:30:05.502Z,100.00
2022-10-10T21:35:27.310Z,100.00
2022-10-10T21:40:49.350Z,100.00
2022-10-10T21:46:14.168Z,100.00
2022-10-10T21:51:38.426Z,100.00
2022-10-10T21:57:00.156Z,100.00
2022-10-10T22:02:21.885Z,100.00
2022-10-10T22:07:45.204Z,100.00
2022-10-10T22:13:07.066Z,100.00
2022-10-10T22:18:29.113Z,100.00
2022-10-10T22:23:50.824Z,100.00
2022-10-10T22:29:12.522Z,100.00
2022-10-10T22:34:34.240Z,100.00
2022-10-10T22:39:56.077Z,100.00
2022-10-10T22:45:18.137Z,100.00
2022-10-10T22:50:39.911Z,100.00
2022-10-10T22:56:02.020Z,100.00
2022-10-10T23:01:25.953Z,100.00
2022-10-10T23:06:47.890Z,100.00
2022-10-10T23:12:10.139Z,100.00
2022-10-10T23:17:31.832Z,100.00
2022-10-10T23:22:54.151Z,100.00
2022-10-10T23:28:16.766Z,100.00
2022-10-10T23:33:38.953Z,100.00
2022-10-10T23:39:00.675Z,100.00
2022-10-10T23:44:22.449Z,100.00
2022-10-10T23:49:44.766Z,100.00
2022-10-10T23:55:06.883Z,100.00
